42J

Keystone Airpark

Keystone Heights, Florida, USA
METAR K42J 200155Z AUTO 07005KT 10SM SCT065 OVC080 24/23 A3014 RMK A01 TSNO
Observed Flight Rules
Oct-20 @ 01:55 UTC (15 minutes ago) Visual Flight Rules
Wind Visibility Clouds
70° at 5 knots 10 miles
  • Scattered at 6,500' AGL
  • Overcast at 8,000' AGL
Temperatures Readings
Current 24°C / 75°F
Dewpoint 23°C / 73°F
Humidity 94%
Altimeter 30.14" Hg
Pressure 1021 hPa
Elevation 60
METAR K42J 200155Z AUTO 07005KT 10SM SCT065 OVC080 24/23 A3014 RMK A01 TSNO
Observed Flight Rules
Oct-20 @ 01:55 UTC
(15 minutes ago)
VFR
Wind Visibility
70° at 5 knots 10 miles
Clouds
  • Scattered at 6,500' AGL
  • Overcast at 8,000' AGL
Temperature Dewpoint
24°C / 75°F 23°C / 73°F
Humidity Altimeter Pressure
94% 30.14" Hg 1021 hPa